sensor_id;sensor_type;location;lat;lon;timestamp;temperature;humidity
8882;DHT22;4477;48.736;9.176;2023-08-12T00:01:28;17.00;99.90
8882;DHT22;4477;48.736;9.176;2023-08-12T00:03:55;17.00;99.90
8882;DHT22;4477;48.736;9.176;2023-08-12T00:06:22;17.10;99.90
8882;DHT22;4477;48.736;9.176;2023-08-12T00:08:49;17.00;99.90
8882;DHT22;4477;48.736;9.176;2023-08-12T00:11:16;17.00;99.90
8882;DHT22;4477;48.736;9.176;2023-08-12T00:13:42;17.00;99.90
8882;DHT22;4477;48.736;9.176;2023-08-12T00:16:09;16.90;99.90
8882;DHT22;4477;48.736;9.176;2023-08-12T00:18:41;16.90;99.90
8882;DHT22;4477;48.736;9.176;2023-08-12T00:21:09;16.90;99.90
8882;DHT22;4477;48.736;9.176;2023-08-12T00:23:39;16.90;99.90
8882;DHT22;4477;48.736;9.176;2023-08-12T00:26:06;16.90;99.90
8882;DHT22;4477;48.736;9.176;2023-08-12T00:28:33;16.80;99.90
8882;DHT22;4477;48.736;9.176;2023-08-12T00:31:00;16.80;99.90
8882;DHT22;4477;48.736;9.176;2023-08-12T00:33:27;16.70;99.90
8882;DHT22;4477;48.736;9.176;2023-08-12T00:35:55;16.70;99.90
8882;DHT22;4477;48.736;9.176;2023-08-12T00:38:22;16.60;99.90
8882;DHT22;4477;48.736;9.176;2023-08-12T00:40:48;16.50;99.90
8882;DHT22;4477;48.736;9.176;2023-08-12T00:43:15;16.50;99.90
8882;DHT22;4477;48.736;9.176;2023-08-12T00:45:42;16.50;99.90
8882;DHT22;4477;48.736;9.176;2023-08-12T00:48:10;16.40;99.90
8882;DHT22;4477;48.736;9.176;2023-08-12T00:50:39;16.40;99.90
8882;DHT22;4477;48.736;9.176;2023-08-12T00:53:07;16.30;99.90
8882;DHT22;4477;48.736;9.176;2023-08-12T00:55:35;16.30;99.90
8882;DHT22;4477;48.736;9.176;2023-08-12T00:58:04;16.20;99.90
8882;DHT22;4477;48.736;9.176;2023-08-12T01:00:31;16.10;99.90
8882;DHT22;4477;48.736;9.176;2023-08-12T01:05:33;16.10;99.90
8882;DHT22;4477;48.736;9.176;2023-08-12T01:08:00;16.10;99.90
8882;DHT22;4477;48.736;9.176;2023-08-12T01:10:32;16.00;99.90
8882;DHT22;4477;48.736;9.176;2023-08-12T01:13:09;16.00;99.90
8882;DHT22;4477;48.736;9.176;2023-08-12T01:15:40;16.00;99.90
8882;DHT22;4477;48.736;9.176;2023-08-12T01:18:08;16.00;99.90
8882;DHT22;4477;48.736;9.176;2023-08-12T01:20:36;16.00;99.90
8882;DHT22;4477;48.736;9.176;2023-08-12T01:23:10;16.00;99.90
8882;DHT22;4477;48.736;9.176;2023-08-12T01:25:37;15.90;99.90
8882;DHT22;4477;48.736;9.176;2023-08-12T01:28:05;15.90;99.90
8882;DHT22;4477;48.736;9.176;2023-08-12T01:30:32;15.90;99.90
8882;DHT22;4477;48.736;9.176;2023-08-12T01:33:05;15.90;99.90
8882;DHT22;4477;48.736;9.176;2023-08-12T01:35:38;15.90;99.90
8882;DHT22;4477;48.736;9.176;2023-08-12T01:38:09;15.90;99.90
8882;DHT22;4477;48.736;9.176;2023-08-12T01:40:38;15.90;99.90
8882;DHT22;4477;48.736;9.176;2023-08-12T01:43:06;15.90;99.90
8882;DHT22;4477;48.736;9.176;2023-08-12T01:45:34;15.90;99.90
8882;DHT22;4477;48.736;9.176;2023-08-12T01:48:01;15.90;99.90
8882;DHT22;4477;48.736;9.176;2023-08-12T01:50:28;15.90;99.90
8882;DHT22;4477;48.736;9.176;2023-08-12T01:52:55;15.90;99.90
8882;DHT22;4477;48.736;9.176;2023-08-12T01:55:23;15.90;99.90
8882;DHT22;4477;48.736;9.176;2023-08-12T01:57:50;15.90;99.90
8882;DHT22;4477;48.736;9.176;2023-08-12T02:00:18;15.90;99.90
8882;DHT22;4477;48.736;9.176;2023-08-12T02:02:44;16.00;99.90
8882;DHT22;4477;48.736;9.176;2023-08-12T02:05:12;16.00;99.90
8882;DHT22;4477;48.736;9.176;2023-08-12T02:07:39;16.10;99.90
8882;DHT22;4477;48.736;9.176;2023-08-12T02:10:07;16.10;99.90
8882;DHT22;4477;48.736;9.176;2023-08-12T02:12:35;16.20;99.90
8882;DHT22;4477;48.736;9.176;2023-08-12T02:15:02;16.30;99.90
8882;DHT22;4477;48.736;9.176;2023-08-12T02:17:29;16.40;99.90
8882;DHT22;4477;48.736;9.176;2023-08-12T02:19:56;16.50;99.90
8882;DHT22;4477;48.736;9.176;2023-08-12T02:22:23;16.50;99.90
8882;DHT22;4477;48.736;9.176;2023-08-12T02:24:50;16.60;99.90
8882;DHT22;4477;48.736;9.176;2023-08-12T02:27:17;16.70;99.90
8882;DHT22;4477;48.736;9.176;2023-08-12T02:29:45;16.80;99.90
8882;DHT22;4477;48.736;9.176;2023-08-12T02:32:12;16.90;99.90
8882;DHT22;4477;48.736;9.176;2023-08-12T02:34:38;16.90;99.90
8882;DHT22;4477;48.736;9.176;2023-08-12T02:37:05;17.00;99.90
8882;DHT22;4477;48.736;9.176;2023-08-12T02:39:32;17.10;99.90
8882;DHT22;4477;48.736;9.176;2023-08-12T02:41:59;17.10;99.90
8882;DHT22;4477;48.736;9.176;2023-08-12T02:44:26;17.10;99.90
8882;DHT22;4477;48.736;9.176;2023-08-12T02:46:54;17.10;99.90
8882;DHT22;4477;48.736;9.176;2023-08-12T02:49:21;17.10;99.90
8882;DHT22;4477;48.736;9.176;2023-08-12T02:51:48;17.10;99.90
8882;DHT22;4477;48.736;9.176;2023-08-12T02:54:14;17.10;99.90
8882;DHT22;4477;48.736;9.176;2023-08-12T02:56:41;17.00;99.90
8882;DHT22;4477;48.736;9.176;2023-08-12T02:59:08;17.10;99.90
8882;DHT22;4477;48.736;9.176;2023-08-12T03:01:35;17.10;99.90
8882;DHT22;4477;48.736;9.176;2023-08-12T03:04:03;17.10;99.90
8882;DHT22;4477;48.736;9.176;2023-08-12T03:06:33;17.10;99.90
8882;DHT22;4477;48.736;9.176;2023-08-12T03:08:59;17.10;99.90
8882;DHT22;4477;48.736;9.176;2023-08-12T03:11:26;17.20;99.90
8882;DHT22;4477;48.736;9.176;2023-08-12T03:13:53;17.20;99.90
8882;DHT22;4477;48.736;9.176;2023-08-12T03:16:20;17.30;99.90
8882;DHT22;4477;48.736;9.176;2023-08-12T03:18:47;17.30;99.90
8882;DHT22;4477;48.736;9.176;2023-08-12T03:21:15;17.40;99.90
8882;DHT22;4477;48.736;9.176;2023-08-12T03:23:42;17.30;99.90
8882;DHT22;4477;48.736;9.176;2023-08-12T03:26:09;17.30;99.90
8882;DHT22;4477;48.736;9.176;2023-08-12T03:28:36;17.40;99.90
8882;DHT22;4477;48.736;9.176;2023-08-12T03:31:03;17.40;99.90
8882;DHT22;4477;48.736;9.176;2023-08-12T03:33:30;17.40;99.90
8882;DHT22;4477;48.736;9.176;2023-08-12T03:35:57;17.40;99.90
8882;DHT22;4477;48.736;9.176;2023-08-12T03:38:26;17.50;99.90
8882;DHT22;4477;48.736;9.176;2023-08-12T03:40:53;17.50;99.90
8882;DHT22;4477;48.736;9.176;2023-08-12T03:43:19;17.50;99.90
8882;DHT22;4477;48.736;9.176;2023-08-12T03:45:47;17.60;99.90
8882;DHT22;4477;48.736;9.176;2023-08-12T03:48:14;17.60;99.90
8882;DHT22;4477;48.736;9.176;2023-08-12T03:50:42;17.60;99.90
8882;DHT22;4477;48.736;9.176;2023-08-12T03:53:11;17.70;99.90
8882;DHT22;4477;48.736;9.176;2023-08-12T03:55:39;17.70;99.90
8882;DHT22;4477;48.736;9.176;2023-08-12T03:58:06;17.70;99.90
8882;DHT22;4477;48.736;9.176;2023-08-12T04:00:32;17.70;99.90
8882;DHT22;4477;48.736;9.176;2023-08-12T04:02:59;17.70;99.90
8882;DHT22;4477;48.736;9.176;2023-08-12T04:05:26;17.70;99.90
8882;DHT22;4477;48.736;9.176;2023-08-12T04:07:53;17.70;99.90
8882;DHT22;4477;48.736;9.176;2023-08-12T04:10:20;17.70;99.90
8882;DHT22;4477;48.736;9.176;2023-08-12T04:12:48;17.80;99.90
8882;DHT22;4477;48.736;9.176;2023-08-12T04:15:15;17.80;99.90
8882;DHT22;4477;48.736;9.176;2023-08-12T04:17:42;17.80;99.90
8882;DHT22;4477;48.736;9.176;2023-08-12T04:20:09;17.80;99.90
8882;DHT22;4477;48.736;9.176;2023-08-12T04:22:36;17.80;99.90
8882;DHT22;4477;48.736;9.176;2023-08-12T04:25:03;17.90;99.90
8882;DHT22;4477;48.736;9.176;2023-08-12T04:27:30;17.90;99.90
8882;DHT22;4477;48.736;9.176;2023-08-12T04:29:58;17.80;99.90
8882;DHT22;4477;48.736;9.176;2023-08-12T04:32:25;17.90;99.90
8882;DHT22;4477;48.736;9.176;2023-08-12T04:34:52;17.80;99.90
8882;DHT22;4477;48.736;9.176;2023-08-12T04:37:19;17.90;99.90
8882;DHT22;4477;48.736;9.176;2023-08-12T04:39:45;17.80;99.90
8882;DHT22;4477;48.736;9.176;2023-08-12T04:42:12;17.80;99.90
8882;DHT22;4477;48.736;9.176;2023-08-12T04:44:39;17.90;99.90
8882;DHT22;4477;48.736;9.176;2023-08-12T04:47:08;17.90;99.90
8882;DHT22;4477;48.736;9.176;2023-08-12T04:49:35;17.90;99.90
8882;DHT22;4477;48.736;9.176;2023-08-12T04:52:03;17.90;99.90
8882;DHT22;4477;48.736;9.176;2023-08-12T04:54:29;17.90;99.90
8882;DHT22;4477;48.736;9.176;2023-08-12T04:56:56;18.00;99.90
8882;DHT22;4477;48.736;9.176;2023-08-12T04:59:23;18.00;99.90
8882;DHT22;4477;48.736;9.176;2023-08-12T05:01:50;18.00;99.90
8882;DHT22;4477;48.736;9.176;2023-08-12T05:04:18;18.00;99.90
8882;DHT22;4477;48.736;9.176;2023-08-12T05:06:45;17.90;99.90
8882;DHT22;4477;48.736;9.176;2023-08-12T05:09:12;18.00;99.90
8882;DHT22;4477;48.736;9.176;2023-08-12T05:11:38;18.10;99.90
8882;DHT22;4477;48.736;9.176;2023-08-12T05:14:05;18.10;99.90
8882;DHT22;4477;48.736;9.176;2023-08-12T05:16:32;18.10;99.90
8882;DHT22;4477;48.736;9.176;2023-08-12T05:18:59;18.20;99.90
8882;DHT22;4477;48.736;9.176;2023-08-12T05:21:27;18.40;99.90
8882;DHT22;4477;48.736;9.176;2023-08-12T05:23:54;18.50;99.90
8882;DHT22;4477;48.736;9.176;2023-08-12T05:26:21;18.70;99.90
8882;DHT22;4477;48.736;9.176;2023-08-12T05:28:48;18.80;99.90
8882;DHT22;4477;48.736;9.176;2023-08-12T05:31:14;19.00;99.90
8882;DHT22;4477;48.736;9.176;2023-08-12T05:33:41;19.10;99.90
8882;DHT22;4477;48.736;9.176;2023-08-12T05:36:08;19.10;99.90
8882;DHT22;4477;48.736;9.176;2023-08-12T05:38:36;19.20;99.90
8882;DHT22;4477;48.736;9.176;2023-08-12T05:41:03;19.20;99.90
8882;DHT22;4477;48.736;9.176;2023-08-12T05:43:32;19.20;99.90
8882;DHT22;4477;48.736;9.176;2023-08-12T05:45:59;19.30;99.90
8882;DHT22;4477;48.736;9.176;2023-08-12T05:48:26;19.30;99.90
8882;DHT22;4477;48.736;9.176;2023-08-12T05:50:53;19.30;99.90
8882;DHT22;4477;48.736;9.176;2023-08-12T05:53:21;19.30;99.90
8882;DHT22;4477;48.736;9.176;2023-08-12T05:55:49;19.40;99.90
8882;DHT22;4477;48.736;9.176;2023-08-12T05:58:16;19.60;99.90
8882;DHT22;4477;48.736;9.176;2023-08-12T06:00:42;19.60;99.90
8882;DHT22;4477;48.736;9.176;2023-08-12T06:03:10;19.60;99.90
8882;DHT22;4477;48.736;9.176;2023-08-12T06:05:37;19.50;99.90
8882;DHT22;4477;48.736;9.176;2023-08-12T06:08:04;19.40;99.90
8882;DHT22;4477;48.736;9.176;2023-08-12T06:10:32;19.40;99.90
8882;DHT22;4477;48.736;9.176;2023-08-12T06:13:01;19.30;99.90
8882;DHT22;4477;48.736;9.176;2023-08-12T06:15:28;19.10;99.90
8882;DHT22;4477;48.736;9.176;2023-08-12T06:17:55;19.00;99.90
8882;DHT22;4477;48.736;9.176;2023-08-12T06:20:22;19.00;99.90
8882;DHT22;4477;48.736;9.176;2023-08-12T06:22:49;19.00;99.90
8882;DHT22;4477;48.736;9.176;2023-08-12T06:25:16;19.20;99.90
8882;DHT22;4477;48.736;9.176;2023-08-12T06:27:43;19.10;99.90
8882;DHT22;4477;48.736;9.176;2023-08-12T06:30:13;19.10;99.90
8882;DHT22;4477;48.736;9.176;2023-08-12T06:32:40;19.10;99.90
8882;DHT22;4477;48.736;9.176;2023-08-12T06:35:08;19.10;99.90
8882;DHT22;4477;48.736;9.176;2023-08-12T06:37:35;19.10;99.90
8882;DHT22;4477;48.736;9.176;2023-08-12T06:40:02;19.20;99.90
8882;DHT22;4477;48.736;9.176;2023-08-12T06:42:29;19.30;99.90
8882;DHT22;4477;48.736;9.176;2023-08-12T06:44:57;19.50;99.90
8882;DHT22;4477;48.736;9.176;2023-08-12T06:47:26;19.60;99.90
8882;DHT22;4477;48.736;9.176;2023-08-12T06:49:55;19.80;99.90
8882;DHT22;4477;48.736;9.176;2023-08-12T12:31:33;20.00;99.90
8882;DHT22;4477;48.736;9.176;2023-08-12T12:34:00;23.60;99.90
8882;DHT22;4477;48.736;9.176;2023-08-12T12:36:27;22.90;99.90
8882;DHT22;4477;48.736;9.176;2023-08-12T12:38:54;22.40;99.90
8882;DHT22;4477;48.736;9.176;2023-08-12T12:41:21;22.10;99.90
8882;DHT22;4477;48.736;9.176;2023-08-12T12:43:47;21.90;99.90
8882;DHT22;4477;48.736;9.176;2023-08-12T12:46:16;21.60;99.90
8882;DHT22;4477;48.736;9.176;2023-08-12T12:48:43;21.50;99.90
8882;DHT22;4477;48.736;9.176;2023-08-12T12:51:11;21.40;99.90
8882;DHT22;4477;48.736;9.176;2023-08-12T12:53:38;21.20;99.90
8882;DHT22;4477;48.736;9.176;2023-08-12T12:56:05;21.20;99.90
8882;DHT22;4477;48.736;9.176;2023-08-12T12:58:33;21.30;99.90
8882;DHT22;4477;48.736;9.176;2023-08-12T13:01:03;21.20;99.90
8882;DHT22;4477;48.736;9.176;2023-08-12T13:03:32;21.30;99.90
8882;DHT22;4477;48.736;9.176;2023-08-12T13:05:59;21.30;99.90
8882;DHT22;4477;48.736;9.176;2023-08-12T13:08:28;21.30;99.90
8882;DHT22;4477;48.736;9.176;2023-08-12T13:10:56;21.40;99.90
8882;DHT22;4477;48.736;9.176;2023-08-12T13:13:23;21.50;99.90
8882;DHT22;4477;48.736;9.176;2023-08-12T13:15:50;21.40;99.90
8882;DHT22;4477;48.736;9.176;2023-08-12T13:18:17;21.40;99.90
8882;DHT22;4477;48.736;9.176;2023-08-12T13:20:45;21.50;99.90
8882;DHT22;4477;48.736;9.176;2023-08-12T13:23:13;21.50;99.90
8882;DHT22;4477;48.736;9.176;2023-08-12T13:25:40;21.40;99.90
8882;DHT22;4477;48.736;9.176;2023-08-12T13:28:07;21.40;99.90
8882;DHT22;4477;48.736;9.176;2023-08-12T13:30:34;21.50;99.90
8882;DHT22;4477;48.736;9.176;2023-08-12T13:33:01;21.60;99.90
8882;DHT22;4477;48.736;9.176;2023-08-12T13:35:28;21.70;99.90
8882;DHT22;4477;48.736;9.176;2023-08-12T13:37:56;21.70;99.90
8882;DHT22;4477;48.736;9.176;2023-08-12T13:40:23;21.70;99.90
8882;DHT22;4477;48.736;9.176;2023-08-12T13:42:50;21.80;99.90
8882;DHT22;4477;48.736;9.176;2023-08-12T13:45:17;22.00;99.90
8882;DHT22;4477;48.736;9.176;2023-08-12T14:34:34;22.40;99.90
8882;DHT22;4477;48.736;9.176;2023-08-12T15:58:07;34.20;65.20
8882;DHT22;4477;48.736;9.176;2023-08-12T16:00:34;25.00;90.40
8882;DHT22;4477;48.736;9.176;2023-08-12T16:03:01;24.70;91.60
8882;DHT22;4477;48.736;9.176;2023-08-12T16:05:28;24.50;92.00
8882;DHT22;4477;48.736;9.176;2023-08-12T16:07:55;24.40;92.30
8882;DHT22;4477;48.736;9.176;2023-08-12T16:10:22;24.40;95.30
8882;DHT22;4477;48.736;9.176;2023-08-12T16:12:50;24.20;94.80
8882;DHT22;4477;48.736;9.176;2023-08-12T16:15:16;24.00;97.80
8882;DHT22;4477;48.736;9.176;2023-08-12T16:17:43;23.40;99.90
8882;DHT22;4477;48.736;9.176;2023-08-12T16:20:11;22.80;99.90
8882;DHT22;4477;48.736;9.176;2023-08-12T16:22:37;22.40;99.90
8882;DHT22;4477;48.736;9.176;2023-08-12T16:25:05;22.10;99.90
8882;DHT22;4477;48.736;9.176;2023-08-12T16:27:32;21.80;99.90
8882;DHT22;4477;48.736;9.176;2023-08-12T16:30:00;21.60;99.90
8882;DHT22;4477;48.736;9.176;2023-08-12T16:32:27;21.50;99.90
8882;DHT22;4477;48.736;9.176;2023-08-12T16:34:54;21.30;99.90
8882;DHT22;4477;48.736;9.176;2023-08-12T16:37:21;21.10;99.90
8882;DHT22;4477;48.736;9.176;2023-08-12T16:42:15;21.00;99.90
8882;DHT22;4477;48.736;9.176;2023-08-12T16:44:42;21.10;99.90
8882;DHT22;4477;48.736;9.176;2023-08-12T16:47:10;21.10;99.90
8882;DHT22;4477;48.736;9.176;2023-08-12T16:49:37;21.20;99.90
8882;DHT22;4477;48.736;9.176;2023-08-12T16:52:04;21.20;99.90
8882;DHT22;4477;48.736;9.176;2023-08-12T16:54:31;21.20;99.90
8882;DHT22;4477;48.736;9.176;2023-08-12T16:56:58;21.20;99.90
8882;DHT22;4477;48.736;9.176;2023-08-12T16:59:25;21.20;99.90
8882;DHT22;4477;48.736;9.176;2023-08-12T17:01:52;21.20;99.90
8882;DHT22;4477;48.736;9.176;2023-08-12T17:04:20;21.20;99.90
8882;DHT22;4477;48.736;9.176;2023-08-12T17:06:47;21.10;99.90
8882;DHT22;4477;48.736;9.176;2023-08-12T17:09:14;21.10;99.90
8882;DHT22;4477;48.736;9.176;2023-08-12T17:11:40;21.00;99.90
8882;DHT22;4477;48.736;9.176;2023-08-12T17:14:07;21.10;99.90
8882;DHT22;4477;48.736;9.176;2023-08-12T17:16:35;21.20;99.90
8882;DHT22;4477;48.736;9.176;2023-08-12T17:19:02;21.30;99.90
8882;DHT22;4477;48.736;9.176;2023-08-12T17:21:30;21.70;99.90
8882;DHT22;4477;48.736;9.176;2023-08-12T17:23:57;21.90;99.90
8882;DHT22;4477;48.736;9.176;2023-08-12T17:26:25;21.80;99.90
8882;DHT22;4477;48.736;9.176;2023-08-12T17:28:52;21.80;99.90
8882;DHT22;4477;48.736;9.176;2023-08-12T17:31:18;21.70;99.90
8882;DHT22;4477;48.736;9.176;2023-08-12T17:33:45;21.60;99.90
8882;DHT22;4477;48.736;9.176;2023-08-12T17:36:12;21.50;99.90
8882;DHT22;4477;48.736;9.176;2023-08-12T17:38:40;21.40;99.90
8882;DHT22;4477;48.736;9.176;2023-08-12T17:41:07;21.30;99.90
8882;DHT22;4477;48.736;9.176;2023-08-12T17:43:35;21.30;99.90
8882;DHT22;4477;48.736;9.176;2023-08-12T17:46:02;21.20;99.90
8882;DHT22;4477;48.736;9.176;2023-08-12T17:48:29;21.10;99.90
8882;DHT22;4477;48.736;9.176;2023-08-12T17:50:56;21.10;99.90
8882;DHT22;4477;48.736;9.176;2023-08-12T17:53:23;21.50;99.90
8882;DHT22;4477;48.736;9.176;2023-08-12T17:55:51;21.60;99.90
8882;DHT22;4477;48.736;9.176;2023-08-12T17:58:18;21.40;99.90
8882;DHT22;4477;48.736;9.176;2023-08-12T18:00:45;21.30;99.90
8882;DHT22;4477;48.736;9.176;2023-08-12T18:03:12;21.40;99.90
8882;DHT22;4477;48.736;9.176;2023-08-12T18:05:39;21.50;99.90
8882;DHT22;4477;48.736;9.176;2023-08-12T18:08:06;21.50;99.90
8882;DHT22;4477;48.736;9.176;2023-08-12T18:10:33;21.70;99.90
8882;DHT22;4477;48.736;9.176;2023-08-12T18:13:01;22.10;99.90
8882;DHT22;4477;48.736;9.176;2023-08-12T18:15:28;22.00;99.90
8882;DHT22;4477;48.736;9.176;2023-08-12T18:17:55;21.90;99.90
8882;DHT22;4477;48.736;9.176;2023-08-12T18:20:22;21.70;99.90
8882;DHT22;4477;48.736;9.176;2023-08-12T18:22:49;21.50;99.90
8882;DHT22;4477;48.736;9.176;2023-08-12T18:25:16;21.30;99.90
8882;DHT22;4477;48.736;9.176;2023-08-12T18:27:42;21.10;99.90
8882;DHT22;4477;48.736;9.176;2023-08-12T18:30:11;20.90;99.90
8882;DHT22;4477;48.736;9.176;2023-08-12T18:32:38;20.70;99.90
8882;DHT22;4477;48.736;9.176;2023-08-12T18:35:06;20.60;99.90
8882;DHT22;4477;48.736;9.176;2023-08-12T18:37:32;20.50;99.90
8882;DHT22;4477;48.736;9.176;2023-08-12T18:39:59;20.40;99.90
8882;DHT22;4477;48.736;9.176;2023-08-12T18:42:26;20.40;99.90
8882;DHT22;4477;48.736;9.176;2023-08-12T18:44:53;20.20;99.90
8882;DHT22;4477;48.736;9.176;2023-08-12T18:47:21;20.20;99.90
8882;DHT22;4477;48.736;9.176;2023-08-12T18:49:48;20.20;99.90
8882;DHT22;4477;48.736;9.176;2023-08-12T18:52:15;20.10;99.90
8882;DHT22;4477;48.736;9.176;2023-08-12T18:54:42;20.00;99.90
8882;DHT22;4477;48.736;9.176;2023-08-12T18:57:08;19.90;99.90
8882;DHT22;4477;48.736;9.176;2023-08-12T18:59:36;19.90;99.90
8882;DHT22;4477;48.736;9.176;2023-08-12T19:02:03;19.90;99.90
8882;DHT22;4477;48.736;9.176;2023-08-12T19:04:32;19.80;99.90
8882;DHT22;4477;48.736;9.176;2023-08-12T19:06:58;19.80;99.90
8882;DHT22;4477;48.736;9.176;2023-08-12T19:09:25;19.80;99.90
8882;DHT22;4477;48.736;9.176;2023-08-12T19:11:52;19.70;99.90
8882;DHT22;4477;48.736;9.176;2023-08-12T19:14:19;19.80;99.90
8882;DHT22;4477;48.736;9.176;2023-08-12T19:16:46;19.80;99.90
8882;DHT22;4477;48.736;9.176;2023-08-12T19:19:13;19.80;99.90
8882;DHT22;4477;48.736;9.176;2023-08-12T19:21:42;19.70;99.90
8882;DHT22;4477;48.736;9.176;2023-08-12T19:24:10;19.70;99.90
8882;DHT22;4477;48.736;9.176;2023-08-12T19:26:36;19.70;99.90
8882;DHT22;4477;48.736;9.176;2023-08-12T19:29:03;19.70;99.90
8882;DHT22;4477;48.736;9.176;2023-08-12T19:31:30;19.70;99.90
8882;DHT22;4477;48.736;9.176;2023-08-12T19:33:57;19.70;99.90
8882;DHT22;4477;48.736;9.176;2023-08-12T19:36:24;19.60;99.90
8882;DHT22;4477;48.736;9.176;2023-08-12T19:38:52;19.60;99.90
8882;DHT22;4477;48.736;9.176;2023-08-12T19:41:19;19.60;99.90
8882;DHT22;4477;48.736;9.176;2023-08-12T19:43:46;19.60;99.90
8882;DHT22;4477;48.736;9.176;2023-08-12T19:46:13;19.60;99.90
8882;DHT22;4477;48.736;9.176;2023-08-12T19:48:40;19.60;99.90
8882;DHT22;4477;48.736;9.176;2023-08-12T19:51:06;19.60;99.90
8882;DHT22;4477;48.736;9.176;2023-08-12T19:53:33;19.70;99.90
8882;DHT22;4477;48.736;9.176;2023-08-12T19:56:01;19.70;99.90
8882;DHT22;4477;48.736;9.176;2023-08-12T19:58:28;19.70;99.90
8882;DHT22;4477;48.736;9.176;2023-08-12T20:00:55;19.70;99.90
8882;DHT22;4477;48.736;9.176;2023-08-12T20:03:22;19.60;99.90
8882;DHT22;4477;48.736;9.176;2023-08-12T20:05:49;19.60;99.90
8882;DHT22;4477;48.736;9.176;2023-08-12T20:08:15;19.50;99.90
8882;DHT22;4477;48.736;9.176;2023-08-12T20:10:42;19.50;99.90
8882;DHT22;4477;48.736;9.176;2023-08-12T20:13:11;19.60;99.90
8882;DHT22;4477;48.736;9.176;2023-08-12T20:15:37;19.60;99.90
8882;DHT22;4477;48.736;9.176;2023-08-12T20:18:04;19.60;99.90
8882;DHT22;4477;48.736;9.176;2023-08-12T20:20:31;19.60;99.90
8882;DHT22;4477;48.736;9.176;2023-08-12T20:22:58;19.60;99.90
8882;DHT22;4477;48.736;9.176;2023-08-12T20:25:25;19.70;99.90
8882;DHT22;4477;48.736;9.176;2023-08-12T20:27:53;19.70;99.90
8882;DHT22;4477;48.736;9.176;2023-08-12T20:30:21;19.80;99.90
8882;DHT22;4477;48.736;9.176;2023-08-12T20:32:48;19.80;99.90
8882;DHT22;4477;48.736;9.176;2023-08-12T20:35:15;19.80;99.90
8882;DHT22;4477;48.736;9.176;2023-08-12T20:37:42;19.80;99.90
8882;DHT22;4477;48.736;9.176;2023-08-12T20:40:10;19.80;99.90
8882;DHT22;4477;48.736;9.176;2023-08-12T20:42:36;19.80;99.90
8882;DHT22;4477;48.736;9.176;2023-08-12T20:45:04;19.70;99.90
8882;DHT22;4477;48.736;9.176;2023-08-12T20:47:34;19.70;99.90
8882;DHT22;4477;48.736;9.176;2023-08-12T20:50:01;19.70;99.90
8882;DHT22;4477;48.736;9.176;2023-08-12T20:52:28;19.70;99.90
8882;DHT22;4477;48.736;9.176;2023-08-12T20:54:55;19.70;99.90
8882;DHT22;4477;48.736;9.176;2023-08-12T20:57:21;19.60;99.90
8882;DHT22;4477;48.736;9.176;2023-08-12T20:59:48;19.60;99.90
8882;DHT22;4477;48.736;9.176;2023-08-12T21:02:15;19.60;99.90
8882;DHT22;4477;48.736;9.176;2023-08-12T21:04:43;19.60;99.90
8882;DHT22;4477;48.736;9.176;2023-08-12T21:07:10;19.60;99.90
8882;DHT22;4477;48.736;9.176;2023-08-12T21:09:37;19.60;99.90
8882;DHT22;4477;48.736;9.176;2023-08-12T21:12:07;19.50;99.90
8882;DHT22;4477;48.736;9.176;2023-08-12T21:14:36;19.40;99.90
8882;DHT22;4477;48.736;9.176;2023-08-12T21:17:03;19.40;99.90
8882;DHT22;4477;48.736;9.176;2023-08-12T21:19:30;19.40;99.90
8882;DHT22;4477;48.736;9.176;2023-08-12T21:21:58;19.40;99.90
8882;DHT22;4477;48.736;9.176;2023-08-12T21:24:25;19.40;99.90
8882;DHT22;4477;48.736;9.176;2023-08-12T21:26:52;19.40;99.90
8882;DHT22;4477;48.736;9.176;2023-08-12T21:29:20;19.50;99.90
8882;DHT22;4477;48.736;9.176;2023-08-12T21:31:47;19.60;99.90
8882;DHT22;4477;48.736;9.176;2023-08-12T21:34:14;19.60;99.90
8882;DHT22;4477;48.736;9.176;2023-08-12T21:36:41;19.60;99.90
8882;DHT22;4477;48.736;9.176;2023-08-12T21:39:09;19.50;99.90
8882;DHT22;4477;48.736;9.176;2023-08-12T21:41:36;19.50;99.90
8882;DHT22;4477;48.736;9.176;2023-08-12T21:44:04;19.40;99.90
8882;DHT22;4477;48.736;9.176;2023-08-12T21:46:31;19.40;99.90
8882;DHT22;4477;48.736;9.176;2023-08-12T21:48:58;19.30;99.90
8882;DHT22;4477;48.736;9.176;2023-08-12T21:51:25;19.20;99.90
8882;DHT22;4477;48.736;9.176;2023-08-12T21:53:52;19.10;99.90
8882;DHT22;4477;48.736;9.176;2023-08-12T21:56:20;19.00;99.90
8882;DHT22;4477;48.736;9.176;2023-08-12T21:58:48;18.90;99.90
8882;DHT22;4477;48.736;9.176;2023-08-12T22:01:15;18.90;99.90
8882;DHT22;4477;48.736;9.176;2023-08-12T22:03:42;18.90;99.90
8882;DHT22;4477;48.736;9.176;2023-08-12T22:06:10;18.80;99.90
8882;DHT22;4477;48.736;9.176;2023-08-12T22:08:37;18.80;99.90
8882;DHT22;4477;48.736;9.176;2023-08-12T22:11:04;18.80;99.90
8882;DHT22;4477;48.736;9.176;2023-08-12T22:13:32;18.70;99.90
8882;DHT22;4477;48.736;9.176;2023-08-12T22:15:59;18.60;99.90
8882;DHT22;4477;48.736;9.176;2023-08-12T22:18:26;18.50;99.90
8882;DHT22;4477;48.736;9.176;2023-08-12T22:20:53;18.60;99.90
8882;DHT22;4477;48.736;9.176;2023-08-12T22:23:19;18.60;99.90
8882;DHT22;4477;48.736;9.176;2023-08-12T22:25:46;18.60;99.90
8882;DHT22;4477;48.736;9.176;2023-08-12T22:28:13;18.60;99.90
8882;DHT22;4477;48.736;9.176;2023-08-12T22:30:41;18.70;99.90
8882;DHT22;4477;48.736;9.176;2023-08-12T22:33:08;18.80;99.90
8882;DHT22;4477;48.736;9.176;2023-08-12T22:35:35;18.80;99.90
8882;DHT22;4477;48.736;9.176;2023-08-12T22:38:02;18.80;99.90
8882;DHT22;4477;48.736;9.176;2023-08-12T22:40:28;18.70;99.90
8882;DHT22;4477;48.736;9.176;2023-08-12T22:42:55;18.70;99.90
8882;DHT22;4477;48.736;9.176;2023-08-12T22:45:22;18.60;99.90
8882;DHT22;4477;48.736;9.176;2023-08-12T22:47:50;18.70;99.90
8882;DHT22;4477;48.736;9.176;2023-08-12T22:50:17;18.60;99.90
8882;DHT22;4477;48.736;9.176;2023-08-12T22:52:44;18.60;99.90
8882;DHT22;4477;48.736;9.176;2023-08-12T22:55:11;18.60;99.90
8882;DHT22;4477;48.736;9.176;2023-08-12T22:57:38;18.50;99.90
8882;DHT22;4477;48.736;9.176;2023-08-12T23:00:06;18.50;99.90
8882;DHT22;4477;48.736;9.176;2023-08-12T23:02:33;18.40;99.90
8882;DHT22;4477;48.736;9.176;2023-08-12T23:05:02;18.30;99.90
8882;DHT22;4477;48.736;9.176;2023-08-12T23:07:28;18.20;99.90
8882;DHT22;4477;48.736;9.176;2023-08-12T23:09:56;18.10;99.90
8882;DHT22;4477;48.736;9.176;2023-08-12T23:12:24;18.00;99.90
8882;DHT22;4477;48.736;9.176;2023-08-12T23:14:52;17.90;99.90
8882;DHT22;4477;48.736;9.176;2023-08-12T23:17:19;17.90;99.90
8882;DHT22;4477;48.736;9.176;2023-08-12T23:19:46;17.80;99.90
8882;DHT22;4477;48.736;9.176;2023-08-12T23:22:14;17.80;99.90
8882;DHT22;4477;48.736;9.176;2023-08-12T23:24:41;17.70;99.90
8882;DHT22;4477;48.736;9.176;2023-08-12T23:27:08;17.60;99.90
8882;DHT22;4477;48.736;9.176;2023-08-12T23:29:35;17.60;99.90
8882;DHT22;4477;48.736;9.176;2023-08-12T23:32:01;17.60;99.90
8882;DHT22;4477;48.736;9.176;2023-08-12T23:34:28;17.50;99.90
8882;DHT22;4477;48.736;9.176;2023-08-12T23:36:55;17.40;99.90
8882;DHT22;4477;48.736;9.176;2023-08-12T23:39:23;17.30;99.90
8882;DHT22;4477;48.736;9.176;2023-08-12T23:41:50;17.40;99.90
8882;DHT22;4477;48.736;9.176;2023-08-12T23:44:17;17.30;99.90
8882;DHT22;4477;48.736;9.176;2023-08-12T23:46:44;17.30;99.90
8882;DHT22;4477;48.736;9.176;2023-08-12T23:49:11;17.30;99.90
8882;DHT22;4477;48.736;9.176;2023-08-12T23:51:38;17.30;99.90
8882;DHT22;4477;48.736;9.176;2023-08-12T23:54:06;17.20;99.90